Terminal Aerodrome Forecast
Issued by NWS Wilmington, OH

Home | Current Version | Previous Version | Text Only | Print | Product List | Glossary On
Versions: 1 2 3 4 5 6 7 8 9 10 11 12 13 14 15 16 17 18 19 20
000
FTUS41 KILN 292100 AAA
TAFCVG
TAF AMD
KCVG 292103Z 2921/3024 18005KT P6SM SCT050
     FM300600 16005KT P6SM SKC
     FM301100 19008KT P6SM BKN060
     FM301800 21010G16KT P6SM VCSH BKN050
      TEMPO 3020/3022 -TSRA BKN040CB
     FM302300 21006KT P6SM VCSH SCT025 OVC120
      TEMPO 3023/3024 4SM -TSRA BR BKN025CB=

USA.gov is the U.S. government's official web portal to all federal, state and local government web resources and services.